createdAt,value
2022-08-27T00:01:23.195Z,10.63
2022-08-27T00:03:50.593Z,12.43
2022-08-27T00:06:19.624Z,16.15
2022-08-27T00:08:48.162Z,14.23
2022-08-27T00:11:17.435Z,10.90
2022-08-27T00:13:44.908Z,14.38
2022-08-27T00:16:15.070Z,15.32
2022-08-27T00:18:47.942Z,11.98
2022-08-27T00:21:17.405Z,13.20
2022-08-27T00:23:44.926Z,21.23
2022-08-27T00:26:12.298Z,13.33
2022-08-27T00:28:40.112Z,15.02
2022-08-27T00:31:07.568Z,9.32
2022-08-27T00:33:36.886Z,12.25
2022-08-27T00:36:05.106Z,13.63
2022-08-27T00:38:32.194Z,14.85
2022-08-27T00:41:01.210Z,14.48
2022-08-27T00:43:32.124Z,13.67
2022-08-27T00:46:07.939Z,13.45
2022-08-27T00:48:36.725Z,15.00
2022-08-27T00:51:04.924Z,14.05
2022-08-27T00:53:33.868Z,14.25
2022-08-27T00:56:16.565Z,15.40
2022-08-27T00:58:51.810Z,12.13
2022-08-27T01:01:24.400Z,15.25
2022-08-27T01:04:03.757Z,15.45
2022-08-27T01:06:36.553Z,12.60
2022-08-27T01:09:09.676Z,12.35
2022-08-27T01:11:37.426Z,15.50
2022-08-27T01:14:05.443Z,11.52
2022-08-27T01:16:37.923Z,9.63
2022-08-27T01:19:18.695Z,20.58
2022-08-27T01:22:07.662Z,12.75
2022-08-27T01:24:45.658Z,10.82
2022-08-27T01:27:20.185Z,12.48
2022-08-27T01:29:47.609Z,12.90
2022-08-27T01:32:21.082Z,12.85
2022-08-27T01:34:48.675Z,12.82
2022-08-27T01:37:17.415Z,14.80
2022-08-27T01:39:51.542Z,14.13
2022-08-27T01:42:38.927Z,16.52
2022-08-27T01:45:12.013Z,12.48
2022-08-27T01:47:39.620Z,13.85
2022-08-27T01:50:19.135Z,17.88
2022-08-27T01:52:46.887Z,17.38
2022-08-27T01:55:18.633Z,14.10
2022-08-27T01:57:46.628Z,18.05
2022-08-27T02:00:25.183Z,15.88
2022-08-27T02:02:52.928Z,20.80
2022-08-27T02:05:20.216Z,17.42
2022-08-27T02:07:47.633Z,16.13
2022-08-27T02:10:22.283Z,17.90
2022-08-27T02:12:49.708Z,19.75
2022-08-27T02:15:17.518Z,17.60
2022-08-27T02:17:44.448Z,15.65
2022-08-27T02:20:12.009Z,18.95
2022-08-27T02:22:39.040Z,17.30
2022-08-27T02:25:10.188Z,19.95
2022-08-27T02:27:37.942Z,16.33
2022-08-27T02:30:06.570Z,18.80
2022-08-27T02:32:33.890Z,15.15
2022-08-27T02:35:03.695Z,20.52
2022-08-27T02:37:31.875Z,18.33
2022-08-27T02:39:59.491Z,15.90
2022-08-27T02:42:26.687Z,18.00
2022-08-27T02:44:54.991Z,14.65
2022-08-27T02:47:22.334Z,19.23
2022-08-27T02:49:49.504Z,16.73
2022-08-27T02:52:16.956Z,19.85
2022-08-27T02:54:52.381Z,16.80
2022-08-27T02:57:19.714Z,13.68
2022-08-27T02:59:46.973Z,21.75
2022-08-27T03:02:14.768Z,19.15
2022-08-27T03:04:43.200Z,13.85
2022-08-27T03:07:13.632Z,18.73
2022-08-27T03:09:46.489Z,21.75
2022-08-27T03:12:13.813Z,17.83
2022-08-27T03:14:40.916Z,16.33
2022-08-27T03:17:26.346Z,15.45
2022-08-27T03:19:54.418Z,14.57
2022-08-27T03:22:23.840Z,21.97
2022-08-27T03:24:50.842Z,18.85
2022-08-27T03:27:17.925Z,18.83
2022-08-27T03:29:45.241Z,15.40
2022-08-27T03:32:12.237Z,17.75
2022-08-27T03:34:39.238Z,16.42
2022-08-27T03:37:06.565Z,13.57
2022-08-27T03:39:33.834Z,15.27
2022-08-27T03:42:00.997Z,19.38
2022-08-27T03:44:28.043Z,18.55
2022-08-27T03:46:55.459Z,18.77
2022-08-27T03:49:23.653Z,17.85
2022-08-27T03:51:52.441Z,18.15
2022-08-27T03:54:20.225Z,17.70
2022-08-27T03:56:47.446Z,17.67
2022-08-27T03:59:15.943Z,19.75
2022-08-27T04:01:44.850Z,19.83
2022-08-27T04:04:13.249Z,14.63
2022-08-27T04:06:41.020Z,19.58
2022-08-27T04:09:08.306Z,15.75
2022-08-27T04:11:35.984Z,19.17
2022-08-27T04:14:25.364Z,17.95
2022-08-27T04:16:57.360Z,19.27
2022-08-27T04:19:28.572Z,16.77
2022-08-27T04:24:37.118Z,19.13
2022-08-27T04:27:05.832Z,20.40
2022-08-27T04:29:33.664Z,15.30
2022-08-27T04:32:01.455Z,16.05
2022-08-27T04:34:28.642Z,17.80
2022-08-27T04:36:57.330Z,17.02
2022-08-27T04:39:28.368Z,14.23
2022-08-27T04:41:58.721Z,16.83
2022-08-27T04:44:30.251Z,18.30
2022-08-27T04:47:01.269Z,17.98
2022-08-27T04:49:30.350Z,13.98
2022-08-27T04:51:59.125Z,17.63
2022-08-27T04:54:32.392Z,16.77
2022-08-27T04:57:04.032Z,17.42
2022-08-27T04:59:32.919Z,15.45
2022-08-27T05:02:03.549Z,14.85
2022-08-27T05:04:32.402Z,15.85
2022-08-27T05:07:00.682Z,17.30
2022-08-27T05:09:27.929Z,12.88
2022-08-27T05:11:56.403Z,15.10
2022-08-27T05:14:25.419Z,15.65
2022-08-27T05:16:52.457Z,12.82
2022-08-27T05:19:19.481Z,14.80
2022-08-27T05:21:49.294Z,12.70
2022-08-27T05:24:17.760Z,12.88
2022-08-27T05:26:45.570Z,14.38
2022-08-27T05:29:13.445Z,13.02
2022-08-27T05:31:42.392Z,13.98
2022-08-27T05:34:14.061Z,15.75
2022-08-27T05:36:48.185Z,14.27
2022-08-27T05:39:18.010Z,15.68
2022-08-27T05:41:45.373Z,14.18
2022-08-27T05:47:00.142Z,13.93
2022-08-27T05:49:33.935Z,16.10
2022-08-27T05:52:01.370Z,13.02
2022-08-27T05:54:28.861Z,14.50
2022-08-27T05:56:55.955Z,12.98
2022-08-27T05:59:42.161Z,17.70
2022-08-27T06:02:09.526Z,18.13
2022-08-27T06:04:37.221Z,15.00
2022-08-27T06:07:04.760Z,15.50
2022-08-27T06:09:32.269Z,17.13
2022-08-27T06:12:05.233Z,18.55
2022-08-27T06:14:36.281Z,15.32
2022-08-27T06:17:05.055Z,19.80
2022-08-27T06:19:32.273Z,18.90
2022-08-27T06:22:11.678Z,23.05
2022-08-27T06:27:10.175Z,21.67
2022-08-27T06:29:37.515Z,20.30
2022-08-27T06:32:05.477Z,20.40
2022-08-27T06:34:33.735Z,20.58
2022-08-27T06:37:00.795Z,21.70
2022-08-27T06:39:28.792Z,17.15
2022-08-27T06:41:58.827Z,17.23
2022-08-27T06:44:26.184Z,13.82
2022-08-27T06:46:53.067Z,16.48
2022-08-27T06:49:20.028Z,20.73
2022-08-27T06:51:48.154Z,20.60
2022-08-27T06:54:16.792Z,16.52
2022-08-27T06:56:44.660Z,20.80
2022-08-27T06:59:16.169Z,16.40
2022-08-27T07:01:47.278Z,16.38
2022-08-27T07:06:49.991Z,17.70
2022-08-27T07:09:17.572Z,19.02
2022-08-27T07:11:45.170Z,13.55
2022-08-27T07:14:12.411Z,17.80
2022-08-27T07:16:40.949Z,16.23
2022-08-27T07:19:08.241Z,13.65
2022-08-27T07:21:36.555Z,13.65
2022-08-27T07:24:05.635Z,15.75
2022-08-27T07:26:36.550Z,16.63
2022-08-27T07:29:07.096Z,15.32
2022-08-27T07:31:35.825Z,15.60
2022-08-27T07:34:04.695Z,15.15
2022-08-27T07:36:32.975Z,14.27
2022-08-27T07:39:01.665Z,17.52
2022-08-27T07:41:32.032Z,14.13
2022-08-27T07:44:21.270Z,20.83
2022-08-27T07:46:58.737Z,15.45
2022-08-27T07:49:28.481Z,16.90
2022-08-27T07:51:55.692Z,24.55
2022-08-27T07:54:23.448Z,13.85
2022-08-27T07:56:54.809Z,15.43
2022-08-27T07:59:27.450Z,12.20
2022-08-27T08:01:56.274Z,15.63
2022-08-27T08:04:24.339Z,16.05
2022-08-27T08:06:51.859Z,14.55
2022-08-27T08:09:22.303Z,15.48
2022-08-27T08:11:50.711Z,12.30
2022-08-27T08:14:19.712Z,14.73
2022-08-27T08:16:47.706Z,11.23
2022-08-27T08:19:17.272Z,14.77
2022-08-27T08:21:44.332Z,14.65
2022-08-27T08:24:11.592Z,16.95
2022-08-27T08:26:38.814Z,11.48
2022-08-27T08:29:06.217Z,18.15
2022-08-27T08:31:33.451Z,14.75
2022-08-27T08:34:00.979Z,20.27
2022-08-27T08:36:28.022Z,17.92
2022-08-27T08:38:55.794Z,13.60
2022-08-27T08:41:43.067Z,15.20
2022-08-27T08:44:54.305Z,17.80
2022-08-27T08:47:33.251Z,16.15
2022-08-27T08:50:23.142Z,16.60
2022-08-27T08:53:06.880Z,15.88
2022-08-27T08:55:56.029Z,15.30
2022-08-27T08:58:45.281Z,17.25
2022-08-27T09:01:16.887Z,14.88
2022-08-27T09:03:57.319Z,15.18
2022-08-27T09:06:36.835Z,15.03
2022-08-27T09:09:23.533Z,12.38
2022-08-27T09:12:06.095Z,12.15
2022-08-27T09:14:46.245Z,16.70
2022-08-27T09:17:13.858Z,16.13
2022-08-27T09:19:41.617Z,12.35
2022-08-27T09:22:30.034Z,15.90
2022-08-27T09:25:06.943Z,14.98
2022-08-27T09:27:41.719Z,17.83
2022-08-27T09:30:13.545Z,13.85
2022-08-27T09:32:41.698Z,23.20
2022-08-27T09:35:13.056Z,17.50
2022-08-27T09:37:46.578Z,15.60
2022-08-27T09:40:40.331Z,18.65
2022-08-27T09:43:23.247Z,16.95
2022-08-27T09:45:58.073Z,15.52
2022-08-27T09:48:31.813Z,15.10
2022-08-27T09:51:08.971Z,15.85
2022-08-27T09:53:50.962Z,16.15
2022-08-27T09:56:40.824Z,12.77
2022-08-27T09:59:10.333Z,17.23
2022-08-27T10:02:22.437Z,13.82
2022-08-27T10:04:58.944Z,16.38
2022-08-27T10:07:32.032Z,17.17
2022-08-27T10:10:37.444Z,18.45
2022-08-27T10:13:52.925Z,19.67
2022-08-27T10:16:48.329Z,14.00
2022-08-27T10:19:49.681Z,14.80
2022-08-27T10:22:41.381Z,12.30
2022-08-27T10:25:42.311Z,12.57
2022-08-27T10:28:30.730Z,14.85
2022-08-27T10:31:39.119Z,15.85
2022-08-27T10:34:22.314Z,12.27
2022-08-27T10:37:43.626Z,13.82
2022-08-27T10:40:19.979Z,10.85
2022-08-27T10:43:11.769Z,9.70
2022-08-27T10:45:54.658Z,15.25
2022-08-27T10:48:29.724Z,12.15
2022-08-27T10:51:15.858Z,17.67
2022-08-27T10:54:13.813Z,11.95
2022-08-27T10:56:47.329Z,12.15
2022-08-27T10:59:33.690Z,11.40
2022-08-27T11:02:31.620Z,11.68
2022-08-27T11:05:14.804Z,12.93
2022-08-27T11:07:58.475Z,15.00
2022-08-27T11:10:31.823Z,13.93
2022-08-27T11:13:11.102Z,14.95
2022-08-27T11:15:44.244Z,16.52
2022-08-27T11:18:18.525Z,15.43
2022-08-27T11:20:59.983Z,12.32
2022-08-27T11:24:00.762Z,12.00
2022-08-27T11:26:31.663Z,11.90
2022-08-27T11:29:37.723Z,12.40
2022-08-27T11:32:52.614Z,11.70
2022-08-27T11:35:32.188Z,12.50
2022-08-27T11:38:51.655Z,11.45
2022-08-27T11:41:45.219Z,11.48
2022-08-27T11:44:14.641Z,12.93
2022-08-27T11:47:08.922Z,9.45
2022-08-27T11:49:47.427Z,10.75
2022-08-27T11:52:29.305Z,12.20
2022-08-27T11:55:29.760Z,11.45
2022-08-27T11:58:17.750Z,8.60
2022-08-27T12:00:46.495Z,9.60
2022-08-27T12:03:19.930Z,6.55
2022-08-27T12:05:54.246Z,12.15
2022-08-27T12:08:24.839Z,9.90
2022-08-27T12:11:22.912Z,10.98
2022-08-27T12:14:17.965Z,6.28
2022-08-27T12:17:18.311Z,5.45
2022-08-27T12:20:08.635Z,10.55
2022-08-27T12:23:12.094Z,5.97
2022-08-27T12:25:39.246Z,6.97
2022-08-27T12:28:09.353Z,7.93
2022-08-27T12:30:39.501Z,8.18
2022-08-27T12:33:18.368Z,8.45
2022-08-27T12:35:50.092Z,6.32
2022-08-27T12:38:21.008Z,7.22
2022-08-27T12:40:55.347Z,7.53
2022-08-27T12:43:28.866Z,5.80
2022-08-27T12:46:17.264Z,9.25
2022-08-27T12:48:52.196Z,11.10
2022-08-27T12:51:33.893Z,9.68
2022-08-27T12:54:41.013Z,5.53
2022-08-27T12:57:44.990Z,7.88
2022-08-27T13:00:26.690Z,6.68
2022-08-27T13:03:08.914Z,6.53
2022-08-27T13:05:43.101Z,7.57
2022-08-27T13:08:21.718Z,6.80
2022-08-27T13:10:50.361Z,5.63
2022-08-27T13:13:25.337Z,8.00
2022-08-27T13:15:58.583Z,8.23
2022-08-27T13:18:29.911Z,8.68
2022-08-27T13:21:14.494Z,12.13
2022-08-27T13:23:54.182Z,10.73
2022-08-27T13:26:29.673Z,11.35
